sensor_id;sensor_type;location;lat;lon;timestamp;temperature;humidity
33988;DHT22;37428;53.580;-1.666;2022-08-19T00:02:20;17.30;83.70
33988;DHT22;37428;53.580;-1.666;2022-08-19T00:05:35;17.30;83.10
33988;DHT22;37428;53.580;-1.666;2022-08-19T00:08:54;17.20;83.00
33988;DHT22;37428;53.580;-1.666;2022-08-19T00:12:42;17.20;82.50
33988;DHT22;37428;53.580;-1.666;2022-08-19T00:15:48;17.10;81.80
33988;DHT22;37428;53.580;-1.666;2022-08-19T00:19:14;17.10;80.40
33988;DHT22;37428;53.580;-1.666;2022-08-19T00:22:31;17.00;80.00
33988;DHT22;37428;53.580;-1.666;2022-08-19T00:25:47;17.00;79.50
33988;DHT22;37428;53.580;-1.666;2022-08-19T00:29:02;17.00;79.50
33988;DHT22;37428;53.580;-1.666;2022-08-19T00:32:30;17.00;79.80
33988;DHT22;37428;53.580;-1.666;2022-08-19T00:35:48;17.00;80.30
33988;DHT22;37428;53.580;-1.666;2022-08-19T00:38:50;17.00;79.80
33988;DHT22;37428;53.580;-1.666;2022-08-19T00:42:03;17.00;79.10
33988;DHT22;37428;53.580;-1.666;2022-08-19T00:45:25;17.00;79.20
33988;DHT22;37428;53.580;-1.666;2022-08-19T00:48:54;16.90;79.60
33988;DHT22;37428;53.580;-1.666;2022-08-19T00:52:27;17.00;79.00
33988;DHT22;37428;53.580;-1.666;2022-08-19T00:59:58;16.90;78.20
33988;DHT22;37428;53.580;-1.666;2022-08-19T01:06:20;16.70;78.50
33988;DHT22;37428;53.580;-1.666;2022-08-19T01:09:39;16.70;77.20
33988;DHT22;37428;53.580;-1.666;2022-08-19T01:14:36;16.80;78.10
33988;DHT22;37428;53.580;-1.666;2022-08-19T01:16:48;16.70;78.00
33988;DHT22;37428;53.580;-1.666;2022-08-19T01:20:08;16.60;77.30
33988;DHT22;37428;53.580;-1.666;2022-08-19T01:23:23;16.60;76.60
33988;DHT22;37428;53.580;-1.666;2022-08-19T01:26:46;16.60;77.00
33988;DHT22;37428;53.580;-1.666;2022-08-19T01:30:00;16.50;76.80
33988;DHT22;37428;53.580;-1.666;2022-08-19T01:33:13;16.40;76.70
33988;DHT22;37428;53.580;-1.666;2022-08-19T01:36:22;16.30;76.60
33988;DHT22;37428;53.580;-1.666;2022-08-19T01:39:29;16.30;77.00
33988;DHT22;37428;53.580;-1.666;2022-08-19T01:42:48;16.30;76.90
33988;DHT22;37428;53.580;-1.666;2022-08-19T01:46:15;16.30;76.60
33988;DHT22;37428;53.580;-1.666;2022-08-19T01:49:23;16.30;77.10
33988;DHT22;37428;53.580;-1.666;2022-08-19T01:52:57;16.20;76.60
33988;DHT22;37428;53.580;-1.666;2022-08-19T01:59:32;16.10;75.60
33988;DHT22;37428;53.580;-1.666;2022-08-19T02:02:43;16.10;75.50
33988;DHT22;37428;53.580;-1.666;2022-08-19T02:06:00;16.00;76.20
33988;DHT22;37428;53.580;-1.666;2022-08-19T02:09:10;16.00;76.00
33988;DHT22;37428;53.580;-1.666;2022-08-19T02:12:17;16.00;76.00
33988;DHT22;37428;53.580;-1.666;2022-08-19T02:15:31;16.00;75.70
33988;DHT22;37428;53.580;-1.666;2022-08-19T02:18:40;16.00;75.30
33988;DHT22;37428;53.580;-1.666;2022-08-19T02:22:02;16.00;75.30
33988;DHT22;37428;53.580;-1.666;2022-08-19T02:28:39;15.90;75.60
33988;DHT22;37428;53.580;-1.666;2022-08-19T02:31:45;15.90;76.20
33988;DHT22;37428;53.580;-1.666;2022-08-19T02:38:17;15.90;76.10
33988;DHT22;37428;53.580;-1.666;2022-08-19T02:45:16;15.90;76.60
33988;DHT22;37428;53.580;-1.666;2022-08-19T02:52:05;15.80;76.40
33988;DHT22;37428;53.580;-1.666;2022-08-19T02:55:29;15.80;76.00
33988;DHT22;37428;53.580;-1.666;2022-08-19T02:58:37;15.70;75.80
33988;DHT22;37428;53.580;-1.666;2022-08-19T03:02:03;15.70;76.30
33988;DHT22;37428;53.580;-1.666;2022-08-19T03:05:45;15.60;76.10
33988;DHT22;37428;53.580;-1.666;2022-08-19T03:08:39;15.60;76.30
33988;DHT22;37428;53.580;-1.666;2022-08-19T03:11:50;15.60;76.30
33988;DHT22;37428;53.580;-1.666;2022-08-19T03:15:09;15.50;76.10
33988;DHT22;37428;53.580;-1.666;2022-08-19T03:18:27;15.50;76.50
33988;DHT22;37428;53.580;-1.666;2022-08-19T03:21:36;15.40;76.20
33988;DHT22;37428;53.580;-1.666;2022-08-19T03:25:05;15.40;76.10
33988;DHT22;37428;53.580;-1.666;2022-08-19T03:35:32;15.30;77.00
33988;DHT22;37428;53.580;-1.666;2022-08-19T03:38:59;15.20;77.10
33988;DHT22;37428;53.580;-1.666;2022-08-19T03:42:11;15.20;77.40
33988;DHT22;37428;53.580;-1.666;2022-08-19T03:45:21;15.20;77.30
33988;DHT22;37428;53.580;-1.666;2022-08-19T03:48:39;15.10;77.50
33988;DHT22;37428;53.580;-1.666;2022-08-19T03:55:41;15.00;78.10
33988;DHT22;37428;53.580;-1.666;2022-08-19T03:58:47;15.00;78.50
33988;DHT22;37428;53.580;-1.666;2022-08-19T04:02:05;15.00;78.30
33988;DHT22;37428;53.580;-1.666;2022-08-19T04:05:12;14.90;78.00
33988;DHT22;37428;53.580;-1.666;2022-08-19T04:08:29;14.90;78.60
33988;DHT22;37428;53.580;-1.666;2022-08-19T04:11:44;14.90;78.40
33988;DHT22;37428;53.580;-1.666;2022-08-19T04:14:54;14.90;78.40
33988;DHT22;37428;53.580;-1.666;2022-08-19T04:17:59;14.90;78.10
33988;DHT22;37428;53.580;-1.666;2022-08-19T04:21:07;14.90;78.20
33988;DHT22;37428;53.580;-1.666;2022-08-19T04:24:34;14.90;78.10
33988;DHT22;37428;53.580;-1.666;2022-08-19T04:27:39;14.80;78.20
33988;DHT22;37428;53.580;-1.666;2022-08-19T04:32:21;14.80;78.10
33988;DHT22;37428;53.580;-1.666;2022-08-19T04:34:35;14.70;78.10
33988;DHT22;37428;53.580;-1.666;2022-08-19T04:38:22;14.60;78.20
33988;DHT22;37428;53.580;-1.666;2022-08-19T04:41:23;14.60;78.40
33988;DHT22;37428;53.580;-1.666;2022-08-19T04:44:43;14.60;77.90
33988;DHT22;37428;53.580;-1.666;2022-08-19T04:48:13;14.50;78.20
33988;DHT22;37428;53.580;-1.666;2022-08-19T04:51:18;14.50;78.20
33988;DHT22;37428;53.580;-1.666;2022-08-19T04:54:27;14.40;78.30
33988;DHT22;37428;53.580;-1.666;2022-08-19T04:58:08;14.40;78.30
33988;DHT22;37428;53.580;-1.666;2022-08-19T05:01:34;14.40;78.30
33988;DHT22;37428;53.580;-1.666;2022-08-19T05:05:09;14.40;78.40
33988;DHT22;37428;53.580;-1.666;2022-08-19T05:08:26;14.30;78.40
33988;DHT22;37428;53.580;-1.666;2022-08-19T05:11:31;14.20;78.30
33988;DHT22;37428;53.580;-1.666;2022-08-19T05:14:37;14.20;78.90
33988;DHT22;37428;53.580;-1.666;2022-08-19T05:17:55;14.20;78.80
33988;DHT22;37428;53.580;-1.666;2022-08-19T05:21:34;14.20;78.70
33988;DHT22;37428;53.580;-1.666;2022-08-19T05:24:56;14.10;79.00
33988;DHT22;37428;53.580;-1.666;2022-08-19T05:28:08;14.10;79.20
33988;DHT22;37428;53.580;-1.666;2022-08-19T05:31:11;14.10;79.00
33988;DHT22;37428;53.580;-1.666;2022-08-19T05:34:14;14.20;79.20
33988;DHT22;37428;53.580;-1.666;2022-08-19T05:40:53;14.20;79.20
33988;DHT22;37428;53.580;-1.666;2022-08-19T05:45:54;14.20;79.70
33988;DHT22;37428;53.580;-1.666;2022-08-19T05:51:49;14.40;79.10
33988;DHT22;37428;53.580;-1.666;2022-08-19T05:54:58;14.50;78.60
33988;DHT22;37428;53.580;-1.666;2022-08-19T05:58:13;14.70;78.10
33988;DHT22;37428;53.580;-1.666;2022-08-19T06:01:50;14.70;77.80
33988;DHT22;37428;53.580;-1.666;2022-08-19T06:05:17;14.90;76.90
33988;DHT22;37428;53.580;-1.666;2022-08-19T06:08:22;15.00;76.50
33988;DHT22;37428;53.580;-1.666;2022-08-19T06:11:35;15.20;76.10
33988;DHT22;37428;53.580;-1.666;2022-08-19T06:14:49;15.30;75.70
33988;DHT22;37428;53.580;-1.666;2022-08-19T06:18:13;15.40;75.90
33988;DHT22;37428;53.580;-1.666;2022-08-19T06:21:18;15.50;75.00
33988;DHT22;37428;53.580;-1.666;2022-08-19T06:24:45;15.60;74.80
33988;DHT22;37428;53.580;-1.666;2022-08-19T06:28:18;15.70;74.40
33988;DHT22;37428;53.580;-1.666;2022-08-19T06:31:45;15.80;74.80
33988;DHT22;37428;53.580;-1.666;2022-08-19T06:35:15;16.00;74.10
33988;DHT22;37428;53.580;-1.666;2022-08-19T06:38:17;16.20;72.80
33988;DHT22;37428;53.580;-1.666;2022-08-19T06:41:21;16.30;73.70
33988;DHT22;37428;53.580;-1.666;2022-08-19T06:44:25;16.40;72.80
33988;DHT22;37428;53.580;-1.666;2022-08-19T06:47:27;16.60;72.50
33988;DHT22;37428;53.580;-1.666;2022-08-19T06:50:31;16.70;71.30
33988;DHT22;37428;53.580;-1.666;2022-08-19T06:53:33;16.90;71.00
33988;DHT22;37428;53.580;-1.666;2022-08-19T06:56:36;17.00;70.00
33988;DHT22;37428;53.580;-1.666;2022-08-19T06:59:39;17.00;69.40
33988;DHT22;37428;53.580;-1.666;2022-08-19T07:02:41;17.10;70.40
33988;DHT22;37428;53.580;-1.666;2022-08-19T07:05:45;17.20;69.20
33988;DHT22;37428;53.580;-1.666;2022-08-19T07:08:47;17.20;69.80
33988;DHT22;37428;53.580;-1.666;2022-08-19T07:11:52;17.40;68.30
33988;DHT22;37428;53.580;-1.666;2022-08-19T07:14:55;17.60;68.10
33988;DHT22;37428;53.580;-1.666;2022-08-19T07:17:57;17.80;68.60
33988;DHT22;37428;53.580;-1.666;2022-08-19T07:21:05;17.80;66.50
33988;DHT22;37428;53.580;-1.666;2022-08-19T07:24:08;17.90;65.60
33988;DHT22;37428;53.580;-1.666;2022-08-19T07:27:10;18.20;64.70
33988;DHT22;37428;53.580;-1.666;2022-08-19T07:30:12;18.80;62.60
33988;DHT22;37428;53.580;-1.666;2022-08-19T07:33:14;19.00;63.70
33988;DHT22;37428;53.580;-1.666;2022-08-19T07:36:21;19.00;62.00
33988;DHT22;37428;53.580;-1.666;2022-08-19T07:39:28;19.20;63.50
33988;DHT22;37428;53.580;-1.666;2022-08-19T07:42:30;19.30;61.60
33988;DHT22;37428;53.580;-1.666;2022-08-19T07:45:32;19.50;62.30
33988;DHT22;37428;53.580;-1.666;2022-08-19T07:48:35;19.60;61.50
33988;DHT22;37428;53.580;-1.666;2022-08-19T07:51:40;19.70;60.10
33988;DHT22;37428;53.580;-1.666;2022-08-19T07:54:42;19.80;59.50
33988;DHT22;37428;53.580;-1.666;2022-08-19T07:57:44;20.10;59.40
33988;DHT22;37428;53.580;-1.666;2022-08-19T08:00:49;20.10;57.70
33988;DHT22;37428;53.580;-1.666;2022-08-19T08:03:52;20.10;57.40
33988;DHT22;37428;53.580;-1.666;2022-08-19T08:07:13;20.20;57.50
33988;DHT22;37428;53.580;-1.666;2022-08-19T08:10:33;20.40;55.70
33988;DHT22;37428;53.580;-1.666;2022-08-19T08:13:35;20.70;56.30
33988;DHT22;37428;53.580;-1.666;2022-08-19T08:16:38;20.70;54.10
33988;DHT22;37428;53.580;-1.666;2022-08-19T08:19:41;20.60;54.50
33988;DHT22;37428;53.580;-1.666;2022-08-19T08:22:46;20.60;53.70
33988;DHT22;37428;53.580;-1.666;2022-08-19T08:26:06;20.80;53.10
33988;DHT22;37428;53.580;-1.666;2022-08-19T08:29:08;20.90;52.20
33988;DHT22;37428;53.580;-1.666;2022-08-19T08:32:11;21.10;51.90
33988;DHT22;37428;53.580;-1.666;2022-08-19T08:35:18;21.30;52.30
33988;DHT22;37428;53.580;-1.666;2022-08-19T08:38:22;21.00;53.60
33988;DHT22;37428;53.580;-1.666;2022-08-19T08:41:31;21.40;51.50
33988;DHT22;37428;53.580;-1.666;2022-08-19T08:44:43;21.10;51.60
33988;DHT22;37428;53.580;-1.666;2022-08-19T08:47:52;20.60;52.00
33988;DHT22;37428;53.580;-1.666;2022-08-19T08:50:57;20.30;53.60
33988;DHT22;37428;53.580;-1.666;2022-08-19T08:54:04;19.90;54.40
33988;DHT22;37428;53.580;-1.666;2022-08-19T08:57:10;19.60;54.60
33988;DHT22;37428;53.580;-1.666;2022-08-19T09:00:17;19.80;54.90
33988;DHT22;37428;53.580;-1.666;2022-08-19T09:03:22;19.60;54.80
33988;DHT22;37428;53.580;-1.666;2022-08-19T09:06:32;19.50;55.20
33988;DHT22;37428;53.580;-1.666;2022-08-19T09:09:40;19.30;54.30
33988;DHT22;37428;53.580;-1.666;2022-08-19T09:12:56;19.60;53.90
33988;DHT22;37428;53.580;-1.666;2022-08-19T09:16:03;20.40;51.40
33988;DHT22;37428;53.580;-1.666;2022-08-19T09:19:08;20.70;49.80
33988;DHT22;37428;53.580;-1.666;2022-08-19T09:22:11;21.10;50.50
33988;DHT22;37428;53.580;-1.666;2022-08-19T09:25:17;21.10;49.30
33988;DHT22;37428;53.580;-1.666;2022-08-19T09:28:21;20.70;49.50
33988;DHT22;37428;53.580;-1.666;2022-08-19T09:31:26;20.40;50.20
33988;DHT22;37428;53.580;-1.666;2022-08-19T09:34:28;20.40;48.80
33988;DHT22;37428;53.580;-1.666;2022-08-19T09:37:31;20.80;47.80
33988;DHT22;37428;53.580;-1.666;2022-08-19T09:40:34;21.00;49.40
33988;DHT22;37428;53.580;-1.666;2022-08-19T09:43:37;21.10;47.00
33988;DHT22;37428;53.580;-1.666;2022-08-19T09:46:39;20.90;47.70
33988;DHT22;37428;53.580;-1.666;2022-08-19T09:49:41;20.70;48.00
33988;DHT22;37428;53.580;-1.666;2022-08-19T09:52:44;20.30;47.70
33988;DHT22;37428;53.580;-1.666;2022-08-19T09:55:47;20.10;47.60
33988;DHT22;37428;53.580;-1.666;2022-08-19T09:58:49;20.10;49.10
33988;DHT22;37428;53.580;-1.666;2022-08-19T10:01:52;20.20;48.50
33988;DHT22;37428;53.580;-1.666;2022-08-19T10:04:54;20.90;47.90
33988;DHT22;37428;53.580;-1.666;2022-08-19T10:08:15;21.40;46.70
33988;DHT22;37428;53.580;-1.666;2022-08-19T10:11:19;21.90;43.40
33988;DHT22;37428;53.580;-1.666;2022-08-19T10:14:21;22.40;42.20
33988;DHT22;37428;53.580;-1.666;2022-08-19T10:17:24;22.60;42.20
33988;DHT22;37428;53.580;-1.666;2022-08-19T10:20:27;22.70;40.70
33988;DHT22;37428;53.580;-1.666;2022-08-19T10:23:30;23.20;39.90
33988;DHT22;37428;53.580;-1.666;2022-08-19T10:26:35;23.30;39.50
33988;DHT22;37428;53.580;-1.666;2022-08-19T10:29:38;23.60;40.80
33988;DHT22;37428;53.580;-1.666;2022-08-19T10:32:40;23.60;37.60
33988;DHT22;37428;53.580;-1.666;2022-08-19T10:35:42;23.20;39.30
33988;DHT22;37428;53.580;-1.666;2022-08-19T10:38:44;22.70;40.00
33988;DHT22;37428;53.580;-1.666;2022-08-19T10:41:48;22.30;40.40
33988;DHT22;37428;53.580;-1.666;2022-08-19T10:44:51;21.70;42.40
33988;DHT22;37428;53.580;-1.666;2022-08-19T10:47:53;21.60;43.60
33988;DHT22;37428;53.580;-1.666;2022-08-19T10:50:57;21.50;43.10
33988;DHT22;37428;53.580;-1.666;2022-08-19T10:54:17;21.60;42.50
33988;DHT22;37428;53.580;-1.666;2022-08-19T10:57:21;21.60;42.30
33988;DHT22;37428;53.580;-1.666;2022-08-19T11:00:25;21.90;44.30
33988;DHT22;37428;53.580;-1.666;2022-08-19T11:03:27;22.70;43.40
33988;DHT22;37428;53.580;-1.666;2022-08-19T11:06:31;23.20;39.00
33988;DHT22;37428;53.580;-1.666;2022-08-19T11:09:39;23.50;40.40
33988;DHT22;37428;53.580;-1.666;2022-08-19T11:12:43;24.00;39.10
33988;DHT22;37428;53.580;-1.666;2022-08-19T11:15:47;24.20;37.20
33988;DHT22;37428;53.580;-1.666;2022-08-19T11:18:51;23.90;37.10
33988;DHT22;37428;53.580;-1.666;2022-08-19T11:21:54;23.40;38.00
33988;DHT22;37428;53.580;-1.666;2022-08-19T11:24:56;23.10;40.00
33988;DHT22;37428;53.580;-1.666;2022-08-19T11:28:00;23.10;40.60
33988;DHT22;37428;53.580;-1.666;2022-08-19T11:31:02;23.00;40.80
33988;DHT22;37428;53.580;-1.666;2022-08-19T11:34:06;22.60;40.10
33988;DHT22;37428;53.580;-1.666;2022-08-19T11:37:08;22.30;42.30
33988;DHT22;37428;53.580;-1.666;2022-08-19T11:40:11;22.10;43.20
33988;DHT22;37428;53.580;-1.666;2022-08-19T11:43:15;21.90;43.10
33988;DHT22;37428;53.580;-1.666;2022-08-19T11:46:18;21.70;43.20
33988;DHT22;37428;53.580;-1.666;2022-08-19T11:49:21;21.70;42.50
33988;DHT22;37428;53.580;-1.666;2022-08-19T11:52:23;21.80;42.60
33988;DHT22;37428;53.580;-1.666;2022-08-19T11:55:25;22.00;43.70
33988;DHT22;37428;53.580;-1.666;2022-08-19T11:58:30;22.00;42.70
33988;DHT22;37428;53.580;-1.666;2022-08-19T12:01:32;21.90;43.70
33988;DHT22;37428;53.580;-1.666;2022-08-19T12:04:35;21.90;42.50
33988;DHT22;37428;53.580;-1.666;2022-08-19T12:07:37;21.80;41.90
33988;DHT22;37428;53.580;-1.666;2022-08-19T12:10:41;21.60;41.30
33988;DHT22;37428;53.580;-1.666;2022-08-19T12:13:46;21.40;42.30
33988;DHT22;37428;53.580;-1.666;2022-08-19T12:16:48;21.40;43.30
33988;DHT22;37428;53.580;-1.666;2022-08-19T12:19:51;21.70;42.90
33988;DHT22;37428;53.580;-1.666;2022-08-19T12:22:53;22.00;42.60
33988;DHT22;37428;53.580;-1.666;2022-08-19T12:25:55;22.00;43.10
33988;DHT22;37428;53.580;-1.666;2022-08-19T12:28:59;22.00;42.70
33988;DHT22;37428;53.580;-1.666;2022-08-19T12:32:02;21.90;41.30
33988;DHT22;37428;53.580;-1.666;2022-08-19T12:35:06;21.80;43.30
33988;DHT22;37428;53.580;-1.666;2022-08-19T12:38:09;21.70;42.20
33988;DHT22;37428;53.580;-1.666;2022-08-19T12:41:14;21.70;42.90
33988;DHT22;37428;53.580;-1.666;2022-08-19T12:44:20;21.90;41.90
33988;DHT22;37428;53.580;-1.666;2022-08-19T12:47:22;21.90;41.90
33988;DHT22;37428;53.580;-1.666;2022-08-19T12:50:27;21.70;42.40
33988;DHT22;37428;53.580;-1.666;2022-08-19T12:53:29;21.40;40.70
33988;DHT22;37428;53.580;-1.666;2022-08-19T12:56:31;21.30;40.70
33988;DHT22;37428;53.580;-1.666;2022-08-19T12:59:35;21.30;41.50
33988;DHT22;37428;53.580;-1.666;2022-08-19T13:02:38;21.20;41.10
33988;DHT22;37428;53.580;-1.666;2022-08-19T13:05:41;21.10;40.70
33988;DHT22;37428;53.580;-1.666;2022-08-19T13:08:44;21.10;41.70
33988;DHT22;37428;53.580;-1.666;2022-08-19T13:11:46;21.00;42.70
33988;DHT22;37428;53.580;-1.666;2022-08-19T13:14:49;21.00;42.70
33988;DHT22;37428;53.580;-1.666;2022-08-19T13:17:54;21.00;42.90
33988;DHT22;37428;53.580;-1.666;2022-08-19T13:20:57;21.30;43.70
33988;DHT22;37428;53.580;-1.666;2022-08-19T13:23:59;22.00;41.70
33988;DHT22;37428;53.580;-1.666;2022-08-19T13:27:01;22.70;40.60
33988;DHT22;37428;53.580;-1.666;2022-08-19T13:30:08;23.30;40.80
33988;DHT22;37428;53.580;-1.666;2022-08-19T13:33:29;23.80;38.50
33988;DHT22;37428;53.580;-1.666;2022-08-19T13:36:31;24.10;39.60
33988;DHT22;37428;53.580;-1.666;2022-08-19T13:39:34;24.40;38.30
33988;DHT22;37428;53.580;-1.666;2022-08-19T13:42:36;24.40;37.80
33988;DHT22;37428;53.580;-1.666;2022-08-19T13:45:40;24.00;38.20
33988;DHT22;37428;53.580;-1.666;2022-08-19T13:48:42;23.50;39.60
33988;DHT22;37428;53.580;-1.666;2022-08-19T13:51:44;23.10;40.90
33988;DHT22;37428;53.580;-1.666;2022-08-19T13:54:46;22.60;41.80
33988;DHT22;37428;53.580;-1.666;2022-08-19T13:57:49;22.10;41.40
33988;DHT22;37428;53.580;-1.666;2022-08-19T14:00:53;21.90;42.80
33988;DHT22;37428;53.580;-1.666;2022-08-19T14:03:55;21.80;43.10
33988;DHT22;37428;53.580;-1.666;2022-08-19T14:06:57;21.90;43.60
33988;DHT22;37428;53.580;-1.666;2022-08-19T14:09:59;22.50;41.90
33988;DHT22;37428;53.580;-1.666;2022-08-19T14:13:03;22.50;39.90
33988;DHT22;37428;53.580;-1.666;2022-08-19T14:16:09;22.30;39.70
33988;DHT22;37428;53.580;-1.666;2022-08-19T14:19:11;22.00;40.60
33988;DHT22;37428;53.580;-1.666;2022-08-19T14:22:13;21.90;41.90
33988;DHT22;37428;53.580;-1.666;2022-08-19T14:25:19;21.70;42.20
33988;DHT22;37428;53.580;-1.666;2022-08-19T14:28:21;21.50;43.60
33988;DHT22;37428;53.580;-1.666;2022-08-19T14:31:25;21.30;43.60
33988;DHT22;37428;53.580;-1.666;2022-08-19T14:34:27;21.20;43.40
33988;DHT22;37428;53.580;-1.666;2022-08-19T14:37:29;20.90;44.00
33988;DHT22;37428;53.580;-1.666;2022-08-19T14:40:32;20.80;44.90
33988;DHT22;37428;53.580;-1.666;2022-08-19T14:43:35;20.90;45.70
33988;DHT22;37428;53.580;-1.666;2022-08-19T14:46:39;20.90;45.80
33988;DHT22;37428;53.580;-1.666;2022-08-19T14:49:41;20.90;45.40
33988;DHT22;37428;53.580;-1.666;2022-08-19T14:52:44;20.70;45.10
33988;DHT22;37428;53.580;-1.666;2022-08-19T14:55:46;20.70;45.70
33988;DHT22;37428;53.580;-1.666;2022-08-19T14:58:48;20.90;46.30
33988;DHT22;37428;53.580;-1.666;2022-08-19T15:01:53;21.00;45.50
33988;DHT22;37428;53.580;-1.666;2022-08-19T15:04:55;21.00;45.30
33988;DHT22;37428;53.580;-1.666;2022-08-19T15:07:57;21.20;44.50
33988;DHT22;37428;53.580;-1.666;2022-08-19T15:11:00;21.50;43.40
33988;DHT22;37428;53.580;-1.666;2022-08-19T15:14:02;21.40;43.60
33988;DHT22;37428;53.580;-1.666;2022-08-19T15:17:07;21.40;44.40
33988;DHT22;37428;53.580;-1.666;2022-08-19T15:20:11;21.50;44.60
33988;DHT22;37428;53.580;-1.666;2022-08-19T15:23:14;21.70;44.30
33988;DHT22;37428;53.580;-1.666;2022-08-19T15:26:18;22.00;43.60
33988;DHT22;37428;53.580;-1.666;2022-08-19T15:29:20;22.00;42.50
33988;DHT22;37428;53.580;-1.666;2022-08-19T15:32:26;21.90;42.60
33988;DHT22;37428;53.580;-1.666;2022-08-19T15:35:28;21.60;43.50
33988;DHT22;37428;53.580;-1.666;2022-08-19T15:38:32;21.60;44.40
33988;DHT22;37428;53.580;-1.666;2022-08-19T15:41:34;21.70;44.40
33988;DHT22;37428;53.580;-1.666;2022-08-19T15:44:37;21.80;43.70
33988;DHT22;37428;53.580;-1.666;2022-08-19T15:47:40;21.90;44.10
33988;DHT22;37428;53.580;-1.666;2022-08-19T15:50:42;22.00;44.60
33988;DHT22;37428;53.580;-1.666;2022-08-19T15:53:46;21.80;43.60
33988;DHT22;37428;53.580;-1.666;2022-08-19T15:56:48;21.70;44.50
33988;DHT22;37428;53.580;-1.666;2022-08-19T16:00:08;21.60;44.20
33988;DHT22;37428;53.580;-1.666;2022-08-19T16:03:30;21.40;44.70
33988;DHT22;37428;53.580;-1.666;2022-08-19T16:06:51;21.30;44.40
33988;DHT22;37428;53.580;-1.666;2022-08-19T16:09:54;21.50;45.30
33988;DHT22;37428;53.580;-1.666;2022-08-19T16:12:56;21.60;45.10
33988;DHT22;37428;53.580;-1.666;2022-08-19T16:15:59;22.00;44.60
33988;DHT22;37428;53.580;-1.666;2022-08-19T16:19:06;22.20;44.60
33988;DHT22;37428;53.580;-1.666;2022-08-19T16:22:08;22.20;42.90
33988;DHT22;37428;53.580;-1.666;2022-08-19T16:25:11;22.20;43.10
33988;DHT22;37428;53.580;-1.666;2022-08-19T16:28:13;22.40;43.50
33988;DHT22;37428;53.580;-1.666;2022-08-19T16:31:15;22.40;43.40
33988;DHT22;37428;53.580;-1.666;2022-08-19T16:34:19;22.30;43.70
33988;DHT22;37428;53.580;-1.666;2022-08-19T16:37:21;22.20;43.40
33988;DHT22;37428;53.580;-1.666;2022-08-19T16:40:23;22.20;43.60
33988;DHT22;37428;53.580;-1.666;2022-08-19T16:43:26;22.20;43.60
33988;DHT22;37428;53.580;-1.666;2022-08-19T16:46:30;22.20;42.90
33988;DHT22;37428;53.580;-1.666;2022-08-19T16:49:33;22.10;43.40
33988;DHT22;37428;53.580;-1.666;2022-08-19T16:52:35;22.10;42.20
33988;DHT22;37428;53.580;-1.666;2022-08-19T16:55:38;21.90;42.50
33988;DHT22;37428;53.580;-1.666;2022-08-19T16:58:40;21.80;42.90
33988;DHT22;37428;53.580;-1.666;2022-08-19T17:01:43;21.80;42.80
33988;DHT22;37428;53.580;-1.666;2022-08-19T17:04:46;21.60;41.90
33988;DHT22;37428;53.580;-1.666;2022-08-19T17:07:49;21.30;42.70
33988;DHT22;37428;53.580;-1.666;2022-08-19T17:10:54;21.10;44.10
33988;DHT22;37428;53.580;-1.666;2022-08-19T17:13:56;20.90;45.80
33988;DHT22;37428;53.580;-1.666;2022-08-19T17:16:58;20.80;45.90
33988;DHT22;37428;53.580;-1.666;2022-08-19T17:20:03;20.60;46.30
33988;DHT22;37428;53.580;-1.666;2022-08-19T17:23:07;20.50;46.60
33988;DHT22;37428;53.580;-1.666;2022-08-19T17:26:10;20.50;47.20
33988;DHT22;37428;53.580;-1.666;2022-08-19T17:29:12;20.40;47.60
33988;DHT22;37428;53.580;-1.666;2022-08-19T17:32:15;20.30;46.70
33988;DHT22;37428;53.580;-1.666;2022-08-19T17:35:18;20.30;47.30
33988;DHT22;37428;53.580;-1.666;2022-08-19T17:38:21;20.10;47.40
33988;DHT22;37428;53.580;-1.666;2022-08-19T17:41:26;20.10;48.50
33988;DHT22;37428;53.580;-1.666;2022-08-19T17:44:28;20.00;48.10
33988;DHT22;37428;53.580;-1.666;2022-08-19T17:47:31;19.90;48.80
33988;DHT22;37428;53.580;-1.666;2022-08-19T17:50:36;19.80;49.70
33988;DHT22;37428;53.580;-1.666;2022-08-19T17:53:38;19.70;49.50
33988;DHT22;37428;53.580;-1.666;2022-08-19T17:56:41;19.70;49.60
33988;DHT22;37428;53.580;-1.666;2022-08-19T17:59:44;19.60;49.90
33988;DHT22;37428;53.580;-1.666;2022-08-19T18:02:53;19.60;50.30
33988;DHT22;37428;53.580;-1.666;2022-08-19T18:05:56;19.60;50.80
33988;DHT22;37428;53.580;-1.666;2022-08-19T18:08:59;19.70;51.50
33988;DHT22;37428;53.580;-1.666;2022-08-19T18:12:01;19.80;50.50
33988;DHT22;37428;53.580;-1.666;2022-08-19T18:15:05;19.70;49.90
33988;DHT22;37428;53.580;-1.666;2022-08-19T18:18:08;19.70;50.80
33988;DHT22;37428;53.580;-1.666;2022-08-19T18:21:12;19.70;50.80
33988;DHT22;37428;53.580;-1.666;2022-08-19T18:24:14;19.70;50.10
33988;DHT22;37428;53.580;-1.666;2022-08-19T18:27:16;19.60;49.90
33988;DHT22;37428;53.580;-1.666;2022-08-19T18:30:20;19.50;50.30
33988;DHT22;37428;53.580;-1.666;2022-08-19T18:33:22;19.50;51.70
33988;DHT22;37428;53.580;-1.666;2022-08-19T18:36:26;19.40;51.60
33988;DHT22;37428;53.580;-1.666;2022-08-19T18:39:29;19.40;51.10
33988;DHT22;37428;53.580;-1.666;2022-08-19T18:42:45;19.40;51.50
33988;DHT22;37428;53.580;-1.666;2022-08-19T18:46:05;19.30;51.10
33988;DHT22;37428;53.580;-1.666;2022-08-19T18:49:26;19.20;51.90
33988;DHT22;37428;53.580;-1.666;2022-08-19T18:52:30;19.30;52.10
33988;DHT22;37428;53.580;-1.666;2022-08-19T18:55:33;19.20;51.90
33988;DHT22;37428;53.580;-1.666;2022-08-19T18:58:36;19.10;52.10
33988;DHT22;37428;53.580;-1.666;2022-08-19T19:01:41;19.10;52.40
33988;DHT22;37428;53.580;-1.666;2022-08-19T19:04:46;19.00;52.80
33988;DHT22;37428;53.580;-1.666;2022-08-19T19:07:50;18.90;53.50
33988;DHT22;37428;53.580;-1.666;2022-08-19T19:10:54;18.80;53.10
33988;DHT22;37428;53.580;-1.666;2022-08-19T19:13:59;18.70;53.40
33988;DHT22;37428;53.580;-1.666;2022-08-19T19:17:05;18.70;54.10
33988;DHT22;37428;53.580;-1.666;2022-08-19T19:20:07;18.60;54.00
33988;DHT22;37428;53.580;-1.666;2022-08-19T19:23:11;18.50;54.10
33988;DHT22;37428;53.580;-1.666;2022-08-19T19:26:13;18.50;54.50
33988;DHT22;37428;53.580;-1.666;2022-08-19T19:29:17;18.30;54.50
33988;DHT22;37428;53.580;-1.666;2022-08-19T19:32:22;18.20;54.80
33988;DHT22;37428;53.580;-1.666;2022-08-19T19:35:25;18.10;54.90
33988;DHT22;37428;53.580;-1.666;2022-08-19T19:38:31;18.00;55.30
33988;DHT22;37428;53.580;-1.666;2022-08-19T19:41:33;18.00;55.30
33988;DHT22;37428;53.580;-1.666;2022-08-19T19:44:37;17.90;55.90
33988;DHT22;37428;53.580;-1.666;2022-08-19T19:47:40;17.90;56.00
33988;DHT22;37428;53.580;-1.666;2022-08-19T19:50:44;17.80;56.20
33988;DHT22;37428;53.580;-1.666;2022-08-19T19:53:48;17.70;56.20
33988;DHT22;37428;53.580;-1.666;2022-08-19T19:56:50;17.70;56.20
33988;DHT22;37428;53.580;-1.666;2022-08-19T19:59:53;17.60;56.50
33988;DHT22;37428;53.580;-1.666;2022-08-19T20:02:55;17.50;56.60
33988;DHT22;37428;53.580;-1.666;2022-08-19T20:05:57;17.40;56.90
33988;DHT22;37428;53.580;-1.666;2022-08-19T20:09:01;17.30;57.30
33988;DHT22;37428;53.580;-1.666;2022-08-19T20:12:10;17.20;57.50